Time;durP1;ratioP1;P1;durP2;ratioP2;P2;SDS_P1;SDS_P2;PMS_P1;PMS_P2;Temp;Humidity;BMP_temperature;BMP_pressure;BME280_temperature;BME280_humidity;BME280_pressure;Samples;Min_cycle;Max_cycle;Signal;HPM_P1;HPM_P2
2024/01/13 00:00:32;;;;;;;40.88;19.25;;;;;;;0.09;100.00;101784.72;7402101;19;20010;-68
2024/01/13 00:03:03;;;;;;;36.30;18.48;;;;;;;0.10;100.00;101776.16;7398987;19;20028;-68
2024/01/13 00:05:32;;;;;;;43.38;20.55;;;;;;;0.12;100.00;101771.06;7402184;19;20357;-69
2024/01/13 00:08:00;;;;;;;38.92;20.20;;;;;;;0.09;100.00;101765.75;7401717;19;20035;-68
2024/01/13 00:10:29;;;;;;;39.78;18.98;;;;;;;0.12;100.00;101761.59;7399524;19;20018;-68
2024/01/13 00:12:57;;;;;;;43.13;19.67;;;;;;;0.11;100.00;101759.84;7400452;19;20086;-69
2024/01/13 00:15:26;;;;;;;38.15;18.40;;;;;;;0.13;100.00;101752.19;7401480;19;20015;-71
2024/01/13 00:17:54;;;;;;;39.83;18.45;;;;;;;0.13;100.00;101755.63;7401469;19;20159;-69
2024/01/13 00:20:25;;;;;;;47.13;19.63;;;;;;;0.13;100.00;101758.19;7400900;19;20014;-68
2024/01/13 00:22:54;;;;;;;39.20;19.35;;;;;;;0.16;100.00;101752.28;7398775;19;20022;-69
2024/01/13 00:25:22;;;;;;;34.67;18.88;;;;;;;0.18;100.00;101748.06;7401194;19;20018;-69
2024/01/13 00:27:57;;;;;;;37.50;19.88;;;;;;;0.20;100.00;101759.31;7398986;19;20014;-70
2024/01/13 00:30:26;;;;;;;34.88;17.25;;;;;;;0.22;100.00;101757.66;7400540;19;20082;-69
2024/01/13 00:32:54;;;;;;;34.00;17.58;;;;;;;0.23;100.00;101756.84;7400320;19;20066;-70
2024/01/13 00:35:25;;;;;;;32.67;17.10;;;;;;;0.25;100.00;101762.06;7398220;19;20078;-69
2024/01/13 00:37:54;;;;;;;31.33;16.40;;;;;;;0.27;100.00;101757.84;7400752;19;20010;-69
2024/01/13 00:40:22;;;;;;;35.15;17.52;;;;;;;0.28;100.00;101754.44;7400686;19;20075;-69
2024/01/13 00:42:50;;;;;;;31.40;15.90;;;;;;;0.27;100.00;101756.13;7396185;19;20436;-69
2024/01/13 00:45:19;;;;;;;35.97;17.05;;;;;;;0.27;100.00;101763.88;7400463;19;20078;-70
2024/01/13 00:47:47;;;;;;;33.58;16.23;;;;;;;0.27;100.00;101757.84;7400529;19;20015;-70
2024/01/13 00:50:16;;;;;;;29.70;14.88;;;;;;;0.27;100.00;101761.28;7399987;19;20473;-70
2024/01/13 00:52:47;;;;;;;28.00;14.20;;;;;;;0.27;100.00;101755.28;7399832;19;20014;-70
2024/01/13 00:55:15;;;;;;;25.60;13.68;;;;;;;0.27;100.00;101755.28;7400652;19;20023;-70
2024/01/13 00:57:44;;;;;;;27.48;15.13;;;;;;;0.27;100.00;101755.28;7400129;19;20066;-70
2024/01/13 01:00:13;;;;;;;26.88;13.98;;;;;;;0.27;100.00;101757.84;7399787;19;20078;-69
2024/01/13 01:02:41;;;;;;;29.00;13.88;;;;;;;0.27;100.00;101761.28;7397355;19;20380;-70
2024/01/13 01:05:10;;;;;;;27.95;14.07;;;;;;;0.29;100.00;101758.75;7399828;19;20019;-70
2024/01/13 01:07:39;;;;;;;23.20;12.75;;;;;;;0.30;100.00;101755.38;7399418;19;20520;-70
2024/01/13 01:10:11;;;;;;;25.55;13.35;;;;;;;0.29;100.00;101758.75;7399719;19;20077;-70
2024/01/13 01:12:39;;;;;;;25.27;12.57;;;;;;;0.31;100.00;101750.25;7398948;19;20082;-70
2024/01/13 01:15:09;;;;;;;27.42;13.07;;;;;;;0.31;100.00;101746.81;7399527;19;20089;-70
2024/01/13 01:17:37;;;;;;;24.90;13.00;;;;;;;0.33;100.00;101747.75;7399086;19;20413;-70
2024/01/13 01:20:07;;;;;;;24.42;12.85;;;;;;;0.32;100.00;101744.28;7399412;19;20014;-70
2024/01/13 01:22:35;;;;;;;26.20;13.88;;;;;;;0.32;100.00;101741.69;7397103;19;20533;-70
2024/01/13 01:25:04;;;;;;;22.40;12.70;;;;;;;0.34;100.00;101739.16;7397349;19;20022;-70
2024/01/13 01:27:35;;;;;;;25.50;14.43;;;;;;;0.33;100.00;101729.69;7397085;19;20078;-70
2024/01/13 01:30:03;;;;;;;26.70;12.32;;;;;;;0.34;100.00;101736.56;7399418;19;20074;-70
2024/01/13 01:32:31;;;;;;;25.83;13.85;;;;;;;0.35;100.00;101729.72;7398335;19;20077;-70
2024/01/13 01:35:00;;;;;;;25.90;13.32;;;;;;;0.35;100.00;101735.75;7398537;19;20423;-70
2024/01/13 01:37:28;;;;;;;23.85;12.38;;;;;;;0.34;100.00;101728.84;7398798;19;20035;-70
2024/01/13 01:39:57;;;;;;;21.88;11.52;;;;;;;0.34;100.00;101726.25;7398749;19;20074;-70
2024/01/13 01:42:25;;;;;;;25.52;13.93;;;;;;;0.35;100.00;101729.72;7396958;19;20081;-70
2024/01/13 01:44:57;;;;;;;25.80;13.10;;;;;;;0.34;100.00;101720.22;7398616;19;20082;-70
2024/01/13 01:47:28;;;;;;;19.02;11.45;;;;;;;0.34;100.00;101721.09;7398915;19;20354;-70
2024/01/13 01:49:57;;;;;;;25.45;13.70;;;;;;;0.35;100.00;101719.41;7396027;19;20066;-70
2024/01/13 01:52:25;;;;;;;25.65;12.30;;;;;;;0.34;100.00;101710.75;7398407;19;20070;-70
2024/01/13 01:54:54;;;;;;;23.55;12.35;;;;;;;0.34;100.00;101710.75;7398156;19;20087;-70
2024/01/13 01:57:24;;;;;;;25.75;13.20;;;;;;;0.35;100.00;101709.06;7398159;19;20027;-70
2024/01/13 01:59:52;;;;;;;25.42;12.85;;;;;;;0.33;100.00;101698.69;7397713;19;20542;-70
2024/01/13 02:02:25;;;;;;;28.42;13.65;;;;;;;0.34;100.00;101707.31;7395403;19;20504;-70
2024/01/13 02:04:56;;;;;;;25.40;13.52;;;;;;;0.33;100.00;101696.13;7397657;19;20498;-70
2024/01/13 02:07:24;;;;;;;25.08;14.02;;;;;;;0.33;100.00;101703.88;7397479;19;20498;-70
2024/01/13 02:09:53;;;;;;;29.42;13.45;;;;;;;0.34;100.00;101689.25;7397736;19;20010;-70
2024/01/13 02:12:22;;;;;;;31.48;14.40;;;;;;;0.32;100.00;101691.78;7397241;19;20487;-70
2024/01/13 02:14:50;;;;;;;30.00;14.93;;;;;;;0.31;100.00;101682.28;7401413;19;20367;-70
2024/01/13 02:17:19;;;;;;;28.33;14.40;;;;;;;0.31;100.00;101683.13;7398017;19;20027;-70
2024/01/13 02:19:50;;;;;;;28.75;14.93;;;;;;;0.30;100.00;101677.94;7397708;19;20014;-70
2024/01/13 02:22:21;;;;;;;30.77;15.68;;;;;;;0.30;100.00;101683.09;7396973;19;20163;-70
2024/01/13 02:24:49;;;;;;;33.13;15.75;;;;;;;0.29;100.00;101677.06;7395018;19;20642;-70
2024/01/13 02:27:18;;;;;;;29.48;15.27;;;;;;;0.29;100.00;101677.06;7395407;19;20540;-70
2024/01/13 02:29:52;;;;;;;33.95;15.65;;;;;;;0.29;100.00;101669.31;7397013;19;20010;-70
2024/01/13 02:32:21;;;;;;;31.30;15.98;;;;;;;0.29;100.00;101665.84;7396881;19;20073;-70
2024/01/13 02:34:49;;;;;;;32.35;16.77;;;;;;;0.27;100.00;101660.63;7394607;19;20073;-70
2024/01/13 02:37:18;;;;;;;32.38;17.02;;;;;;;0.26;100.00;101656.28;7395054;19;20073;-70
2024/01/13 02:39:49;;;;;;;32.13;16.25;;;;;;;0.26;100.00;101650.25;7396405;19;20473;-70
2024/01/13 02:42:17;;;;;;;32.95;16.23;;;;;;;0.25;100.00;101651.06;7396034;19;20003;-70
2024/01/13 02:44:46;;;;;;;31.50;16.55;;;;;;;0.24;100.00;101636.41;7394828;19;20027;-70
2024/01/13 02:47:14;;;;;;;29.10;16.20;;;;;;;0.23;100.00;101634.66;7396035;19;20031;-70
2024/01/13 02:49:42;;;;;;;29.67;17.08;;;;;;;0.20;100.00;101635.41;7396394;19;20018;-70
2024/01/13 02:52:11;;;;;;;33.25;16.33;;;;;;;0.20;100.00;101630.25;7395949;19;20011;-70
2024/01/13 02:54:39;;;;;;;27.98;15.45;;;;;;;0.19;100.00;101622.47;7394269;19;20449;-70
2024/01/13 02:57:10;;;;;;;30.33;17.40;;;;;;;0.19;100.00;101625.03;7396150;19;20074;-70
2024/01/13 02:59:39;;;;;;;28.00;14.95;;;;;;;0.17;100.00;101611.22;7395741;19;20017;-70
2024/01/13 03:02:07;;;;;;;29.73;15.68;;;;;;;0.18;100.00;101607.81;7395526;19;20093;-70
2024/01/13 03:04:36;;;;;;;29.73;16.63;;;;;;;0.15;100.00;101608.56;7394367;19;20074;-70
2024/01/13 03:07:05;;;;;;;32.22;16.05;;;;;;;0.14;100.00;101610.28;7394675;19;20027;-70
2024/01/13 03:09:33;;;;;;;31.33;16.25;;;;;;;0.13;100.00;101603.38;7395545;19;20028;-70
2024/01/13 03:12:01;;;;;;;36.50;16.77;;;;;;;0.12;100.00;101603.31;7395688;19;20062;-70
2024/01/13 03:14:32;;;;;;;32.42;16.00;;;;;;;0.10;100.00;101608.44;7394233;19;20031;-71
2024/01/13 03:17:01;;;;;;;34.60;16.85;;;;;;;0.09;100.00;101605.78;7395229;19;20426;-71
2024/01/13 03:19:31;;;;;;;31.83;16.55;;;;;;;0.09;100.00;101593.75;7395541;19;20018;-70
2024/01/13 03:22:06;;;;;;;32.97;16.05;;;;;;;0.09;100.00;101591.19;7394705;19;20463;-70
2024/01/13 03:24:34;;;;;;;32.70;17.08;;;;;;;0.08;100.00;101584.25;7393872;19;20054;-70
2024/01/13 03:27:03;;;;;;;32.38;16.52;;;;;;;0.08;100.00;101579.09;7394314;19;20035;-70
2024/01/13 03:29:34;;;;;;;33.83;17.50;;;;;;;0.08;100.00;101581.69;7394839;19;20477;-70
2024/01/13 03:32:02;;;;;;;34.03;17.17;;;;;;;0.08;100.00;101576.53;7395226;19;20011;-70
2024/01/13 03:34:30;;;;;;;31.55;17.30;;;;;;;0.06;100.00;101580.75;7393042;19;20032;-70
2024/01/13 03:36:59;;;;;;;35.22;17.40;;;;;;;0.06;100.00;101575.59;7394544;19;20082;-70
2024/01/13 03:39:27;;;;;;;36.03;17.25;;;;;;;0.06;100.00;101575.59;7395017;19;20028;-70
2024/01/13 03:41:56;;;;;;;35.05;17.25;;;;;;;0.06;100.00;101564.41;7394474;19;20027;-70
2024/01/13 03:44:24;;;;;;;32.97;17.42;;;;;;;0.05;100.00;101568.69;7393281;19;20032;-70
2024/01/13 03:46:56;;;;;;;33.28;17.00;;;;;;;0.04;100.00;101564.34;7394396;19;20494;-70
2024/01/13 03:49:24;;;;;;;33.80;18.20;;;;;;;0.03;100.00;101560.00;7395684;19;20010;-70
2024/01/13 03:51:53;;;;;;;33.00;18.20;;;;;;;0.04;100.00;101555.72;7392874;19;20082;-70
2024/01/13 03:54:21;;;;;;;33.83;17.50;;;;;;;0.02;100.00;101557.38;7392901;19;20028;-70
2024/01/13 03:56:51;;;;;;;33.25;18.48;;;;;;;0.01;100.00;101553.03;7394186;19;20091;-70
2024/01/13 03:59:20;;;;;;;34.67;18.63;;;;;;;0.00;100.00;101544.44;7394406;19;20011;-70
2024/01/13 04:01:48;;;;;;;33.63;17.58;;;;;;;-0.02;100.00;101540.91;7394344;19;20419;-70
2024/01/13 04:04:19;;;;;;;36.05;18.88;;;;;;;-0.02;100.00;101540.91;7392342;19;20019;-70
2024/01/13 04:06:48;;;;;;;33.67;18.38;;;;;;;-0.04;100.00;101527.97;7394678;19;20069;-70
2024/01/13 04:09:16;;;;;;;38.65;19.48;;;;;;;-0.05;100.00;101531.38;7393856;19;20020;-70
2024/01/13 04:11:45;;;;;;;39.30;18.20;;;;;;;-0.07;100.00;101534.72;7394102;19;20015;-70
2024/01/13 04:14:13;;;;;;;41.47;20.45;;;;;;;-0.07;100.00;101534.72;7392145;19;20018;-70
2024/01/13 04:16:42;;;;;;;39.55;18.80;;;;;;;-0.10;100.00;101527.75;7393683;19;20006;-71
2024/01/13 04:19:10;;;;;;;37.72;19.75;;;;;;;-0.12;100.00;101533.69;7397907;19;20070;-71
2024/01/13 04:21:42;;;;;;;38.05;19.42;;;;;;;-0.13;100.00;101529.34;7401019;19;20027;-71
2024/01/13 04:24:10;;;;;;;38.35;18.77;;;;;;;-0.15;100.00;101523.25;7398295;19;20170;-70
2024/01/13 04:26:39;;;;;;;41.85;20.58;;;;;;;-0.15;100.00;101525.81;7400144;19;20014;-70
2024/01/13 04:29:07;;;;;;;41.20;19.15;;;;;;;-0.18;100.00;101530.06;7401512;19;20081;-70
2024/01/13 04:31:36;;;;;;;43.88;20.55;;;;;;;-0.17;100.00;101530.94;7400643;19;20023;-70
2024/01/13 04:34:04;;;;;;;40.15;19.88;;;;;;;-0.18;100.00;101527.50;7399039;19;20014;-70
2024/01/13 04:36:33;;;;;;;40.67;19.23;;;;;;;-0.19;100.00;101536.03;7411838;19;20473;-70
2024/01/13 04:39:04;;;;;;;42.30;19.70;;;;;;;-0.20;100.00;101531.72;7402111;19;20022;-71
2024/01/13 04:41:32;;;;;;;42.13;20.60;;;;;;;-0.20;100.00;101521.38;7401332;19;20074;-70
2024/01/13 04:44:01;;;;;;;41.97;20.05;;;;;;;-0.19;100.00;101527.41;7398461;19;20027;-70
2024/01/13 04:46:29;;;;;;;46.15;19.27;;;;;;;-0.20;100.00;101518.81;7400464;19;20082;-70
2024/01/13 04:48:58;;;;;;;39.30;19.67;;;;;;;-0.19;100.00;101512.84;7400449;19;20018;-70
2024/01/13 04:51:26;;;;;;;43.05;18.65;;;;;;;-0.20;100.00;101508.50;7400427;19;20078;-70
2024/01/13 04:53:56;;;;;;;46.25;20.10;;;;;;;-0.20;100.00;101502.47;7398247;19;20015;-70
2024/01/13 04:56:27;;;;;;;37.55;17.60;;;;;;;-0.19;100.00;101504.19;7399879;19;20007;-71
2024/01/13 04:58:56;;;;;;;39.13;18.70;;;;;;;-0.19;100.00;101502.53;7400589;19;20094;-71
2024/01/13 05:01:24;;;;;;;38.03;18.77;;;;;;;-0.18;100.00;101503.38;7399969;19;20470;-71
2024/01/13 05:03:53;;;;;;;40.53;19.35;;;;;;;-0.18;100.00;101496.53;7397845;19;20382;-71
2024/01/13 05:06:21;;;;;;;41.60;19.40;;;;;;;-0.17;100.00;101506.00;7399621;19;20074;-71
2024/01/13 05:08:50;;;;;;;39.05;18.98;;;;;;;-0.14;100.00;101501.78;7399399;19;20070;-70
2024/01/13 05:11:19;;;;;;;39.10;19.00;;;;;;;-0.13;100.00;101495.81;7399491;19;20028;-71
2024/01/13 05:13:50;;;;;;;40.28;19.20;;;;;;;-0.13;100.00;101483.78;7397754;19;20017;-71
2024/01/13 05:16:18;;;;;;;42.40;19.95;;;;;;;-0.12;100.00;101471.78;7399449;19;20418;-71
2024/01/13 05:18:47;;;;;;;42.45;19.58;;;;;;;-0.11;100.00;101473.53;7398988;19;20481;-70
2024/01/13 05:21:15;;;;;;;40.63;20.17;;;;;;;-0.11;100.00;101473.53;7399258;19;20011;-71
2024/01/13 05:23:44;;;;;;;43.60;20.98;;;;;;;-0.10;100.00;101473.59;7397283;19;20019;-71
2024/01/13 05:26:13;;;;;;;37.38;19.35;;;;;;;-0.08;100.00;101473.63;7396862;19;20035;-70
2024/01/13 05:28:42;;;;;;;42.25;19.95;;;;;;;-0.07;100.00;101475.38;7397235;19;20015;-70
2024/01/13 05:31:13;;;;;;;39.38;20.35;;;;;;;-0.07;100.00;101478.81;7398077;19;20518;-70
2024/01/13 05:33:41;;;;;;;37.53;18.65;;;;;;;-0.06;100.00;101477.16;7397329;19;20533;-70
2024/01/13 05:36:10;;;;;;;37.97;18.88;;;;;;;-0.05;100.00;101473.72;7398793;19;20216;-70
2024/01/13 05:38:39;;;;;;;35.85;17.10;;;;;;;-0.05;100.00;101468.56;7398762;19;20078;-70
2024/01/13 05:41:07;;;;;;;39.35;18.80;;;;;;;-0.04;100.00;101470.31;7398601;19;20070;-70
2024/01/13 05:43:36;;;;;;;34.90;17.98;;;;;;;-0.04;100.00;101476.38;7397386;19;20016;-70
2024/01/13 05:46:04;;;;;;;38.03;17.83;;;;;;;-0.02;100.00;101481.56;7398531;19;20007;-70
2024/01/13 05:48:35;;;;;;;36.03;18.33;;;;;;;-0.03;100.00;101472.94;7398390;19;20086;-70
2024/01/13 05:51:04;;;;;;;33.53;16.17;;;;;;;0.02;100.00;101477.41;7397971;19;20428;-70
2024/01/13 05:53:32;;;;;;;32.15;15.40;;;;;;;0.07;100.00;101476.72;7396786;19;20392;-70
2024/01/13 05:56:01;;;;;;;31.60;16.13;;;;;;;0.14;100.00;101472.66;7397743;19;20485;-70
2024/01/13 05:58:29;;;;;;;31.08;15.13;;;;;;;0.17;100.00;101470.16;7398115;19;20074;-70
2024/01/13 06:00:58;;;;;;;28.27;15.00;;;;;;;0.19;100.00;101472.78;7397652;19;20375;-70
2024/01/13 06:03:26;;;;;;;31.88;16.02;;;;;;;0.21;100.00;101466.84;7396747;19;20010;-70
2024/01/13 06:05:57;;;;;;;29.75;14.75;;;;;;;0.23;100.00;101465.19;7397722;19;20367;-70
2024/01/13 06:08:26;;;;;;;27.00;14.70;;;;;;;0.25;100.00;101460.06;7398020;19;20090;-70
2024/01/13 06:10:54;;;;;;;27.63;14.13;;;;;;;0.25;100.00;101466.13;7397195;19;20513;-70
2024/01/13 06:13:23;;;;;;;28.27;15.10;;;;;;;0.29;100.00;101464.50;7396646;19;20027;-70
2024/01/13 06:15:51;;;;;;;24.70;14.00;;;;;;;0.30;100.00;101471.41;7397417;19;20335;-70
2024/01/13 06:18:20;;;;;;;26.02;14.27;;;;;;;0.31;100.00;101462.84;7397771;19;20028;-70
2024/01/13 06:20:48;;;;;;;26.65;13.95;;;;;;;0.31;100.00;101465.44;7397338;19;20031;-70
2024/01/13 06:23:20;;;;;;;23.40;13.93;;;;;;;0.32;100.00;101459.44;7396111;19;20368;-70
2024/01/13 06:25:48;;;;;;;22.52;12.77;;;;;;;0.32;100.00;101456.88;7395773;19;20090;-69
2024/01/13 06:28:30;;;;;;;20.10;12.55;;;;;;;0.33;100.00;101458.63;7394714;19;20516;-69
2024/01/13 06:30:58;;;;;;;20.23;12.15;;;;;;;0.32;100.00;101454.28;7397088;19;20436;-69
2024/01/13 06:33:27;;;;;;;20.00;12.52;;;;;;;0.31;100.00;101450.81;7395003;19;20027;-70
2024/01/13 06:35:55;;;;;;;19.42;11.20;;;;;;;0.32;100.00;101451.72;7396638;19;20017;-69
2024/01/13 06:38:26;;;;;;;20.77;12.35;;;;;;;0.31;100.00;101440.47;7396856;19;20014;-69
2024/01/13 06:40:54;;;;;;;19.23;12.00;;;;;;;0.32;100.00;101428.47;7395207;19;20090;-69
2024/01/13 06:43:23;;;;;;;18.63;12.25;;;;;;;0.32;100.00;101428.47;7395289;19;20074;-70
2024/01/13 06:45:51;;;;;;;19.50;11.70;;;;;;;0.30;100.00;101427.53;7396330;19;20081;-70
2024/01/13 06:48:20;;;;;;;19.77;12.40;;;;;;;0.31;100.00;101421.56;7396476;19;20081;-69
2024/01/13 06:50:49;;;;;;;20.95;12.60;;;;;;;0.30;100.00;101417.22;7394388;19;20015;-69
2024/01/13 06:53:17;;;;;;;20.58;12.50;;;;;;;0.29;100.00;101418.94;7395728;19;20018;-70
2024/01/13 06:55:48;;;;;;;18.92;12.10;;;;;;;0.30;100.00;101409.47;7396163;19;20014;-70
2024/01/13 06:58:17;;;;;;;20.45;12.68;;;;;;;0.30;100.00;101405.22;7396523;19;20506;-69
2024/01/13 07:00:45;;;;;;;18.73;11.60;;;;;;;0.30;100.00;101412.06;7396057;19;20007;-70
2024/01/13 07:03:14;;;;;;;19.42;12.60;;;;;;;0.31;100.00;101406.94;7394835;19;20541;-70
2024/01/13 07:05:42;;;;;;;19.95;12.07;;;;;;;0.29;100.00;101407.72;7395540;19;20388;-69
2024/01/13 07:08:11;;;;;;;20.63;12.02;;;;;;;0.29;100.00;101399.97;7395629;19;20015;-69
2024/01/13 07:10:39;;;;;;;20.23;11.60;;;;;;;0.27;100.00;101399.94;7395615;19;20037;-69
2024/01/13 07:13:10;;;;;;;20.45;12.25;;;;;;;0.25;100.00;101396.44;7394607;19;20427;-70
2024/01/13 07:15:38;;;;;;;18.58;11.63;;;;;;;0.27;100.00;101394.78;7395586;19;20007;-69
2024/01/13 07:18:14;;;;;;;21.67;11.82;;;;;;;0.27;100.00;101387.03;7394883;19;20481;-69
2024/01/13 07:20:42;;;;;;;20.75;10.90;;;;;;;0.27;100.00;101378.41;7395856;19;20010;-69
2024/01/13 07:23:11;;;;;;;20.40;11.32;;;;;;;0.27;100.00;101375.84;7394559;19;20083;-69
2024/01/13 07:25:39;;;;;;;18.42;11.07;;;;;;;0.29;100.00;101374.16;7395250;19;20010;-69
2024/01/13 07:28:10;;;;;;;19.23;11.98;;;;;;;0.26;100.00;101369.78;7392831;19;20027;-69
2024/01/13 07:30:39;;;;;;;21.80;11.98;;;;;;;0.27;100.00;101368.97;7392939;19;20370;-69
2024/01/13 07:33:07;;;;;;;18.42;10.63;;;;;;;0.29;100.00;101367.31;7393922;19;20011;-69
2024/01/13 07:35:37;;;;;;;21.27;12.32;;;;;;;0.29;100.00;101375.06;7395101;19;20015;-69
2024/01/13 07:38:06;;;;;;;21.52;12.20;;;;;;;0.29;100.00;101371.56;7394756;19;20502;-69
2024/01/13 07:40:35;;;;;;;17.30;10.45;;;;;;;0.30;100.00;101365.59;7395017;19;20363;-69
2024/01/13 07:43:03;;;;;;;18.85;11.90;;;;;;;0.32;100.00;101359.66;7393878;19;20517;-70
2024/01/13 07:45:34;;;;;;;18.75;12.25;;;;;;;0.33;100.00;101352.78;7395244;19;20074;-69
2024/01/13 07:48:03;;;;;;;22.25;13.05;;;;;;;0.35;100.00;101356.28;7394960;19;20343;-69
2024/01/13 07:50:32;;;;;;;16.83;11.02;;;;;;;0.37;100.00;101358.91;7392451;19;20007;-69
2024/01/13 07:53:01;;;;;;;17.85;9.38;;;;;;;0.38;100.00;101364.13;7395797;19;20014;-69
2024/01/13 07:55:30;;;;;;;18.60;11.00;;;;;;;0.39;100.00;101350.41;7401976;19;20010;-69
2024/01/13 07:57:58;;;;;;;18.17;11.00;;;;;;;0.40;100.00;101354.72;7401816;19;20410;-69
2024/01/13 08:00:27;;;;;;;18.58;10.77;;;;;;;0.41;100.00;101351.31;7398839;19;20015;-69
2024/01/13 08:02:58;;;;;;;16.13;10.27;;;;;;;0.41;100.00;101342.69;7401175;19;20010;-69
2024/01/13 08:05:27;;;;;;;16.27;10.00;;;;;;;0.43;100.00;101341.00;7399437;19;20035;-69
2024/01/13 08:07:55;;;;;;;14.35;9.70;;;;;;;0.45;100.00;101336.78;7401841;19;20006;-69
2024/01/13 08:10:24;;;;;;;16.13;10.65;;;;;;;0.45;100.00;101342.81;7401737;19;20010;-69
2024/01/13 08:12:52;;;;;;;16.88;9.95;;;;;;;0.45;100.00;101347.97;7400969;19;20015;-69
2024/01/13 08:15:20;;;;;;;16.38;9.95;;;;;;;0.40;100.00;101334.06;7398351;19;20010;-69
2024/01/13 08:17:49;;;;;;;17.48;11.18;;;;;;;0.43;100.00;101335.84;7401487;19;20070;-69
2024/01/13 08:20:21;;;;;;;16.70;10.73;;;;;;;0.43;100.00;101330.69;7401224;19;20082;-68
2024/01/13 08:22:50;;;;;;;17.50;9.80;;;;;;;0.43;100.00;101328.09;7401224;19;20035;-68
2024/01/13 08:25:19;;;;;;;15.60;9.90;;;;;;;0.44;100.00;101328.19;7398706;19;20018;-68
2024/01/13 08:28:01;;;;;;;15.45;9.73;;;;;;;0.45;100.00;101319.56;7399285;19;20438;-69
2024/01/13 08:30:35;;;;;;;13.07;8.57;;;;;;;0.47;100.00;101323.09;7400456;19;20019;-68
2024/01/13 08:33:04;;;;;;;13.95;8.80;;;;;;;0.48;100.00;101327.44;7397668;19;20392;-69
2024/01/13 08:35:57;;;;;;;14.57;8.40;;;;;;;0.50;100.00;101319.72;7400491;19;20011;-70
2024/01/13 08:38:26;;;;;;;12.73;8.75;;;;;;;0.51;100.00;101315.44;7401287;19;20014;-69
2024/01/13 08:40:54;;;;;;;12.55;8.23;;;;;;;0.48;100.00;101309.34;7400151;19;20545;-69
2024/01/13 08:43:22;;;;;;;12.35;7.75;;;;;;;0.53;100.00;101314.66;7399124;19;20027;-69
2024/01/13 08:45:51;;;;;;;11.73;7.22;;;;;;;0.53;100.00;101303.44;7397788;19;20066;-69
2024/01/13 08:48:19;;;;;;;10.75;7.55;;;;;;;0.54;100.00;101305.19;7400351;19;20069;-68
2024/01/13 08:50:48;;;;;;;11.27;7.60;;;;;;;0.55;100.00;101301.78;7400073;19;20019;-68
2024/01/13 08:53:19;;;;;;;12.07;8.23;;;;;;;0.55;100.00;101306.94;7399222;19;20070;-69
2024/01/13 08:55:48;;;;;;;10.98;8.32;;;;;;;0.55;100.00;101300.06;7400122;19;20091;-69
2024/01/13 08:58:16;;;;;;;12.68;8.30;;;;;;;0.56;100.00;101306.97;7400016;19;20021;-69
2024/01/13 09:00:45;;;;;;;11.98;8.63;;;;;;;0.56;100.00;101304.41;7397312;19;20015;-69
2024/01/13 09:03:13;;;;;;;10.23;8.30;;;;;;;0.58;100.00;101291.53;7398433;19;20027;-69
2024/01/13 09:05:42;;;;;;;10.02;8.82;;;;;;;0.59;100.00;101295.88;7395782;19;20036;-69
2024/01/13 09:08:10;;;;;;;10.30;8.32;;;;;;;0.60;100.00;101293.31;7399426;19;20006;-69
2024/01/13 09:10:41;;;;;;;11.82;8.68;;;;;;;0.60;100.00;101295.91;7399416;19;20011;-69
2024/01/13 09:13:10;;;;;;;12.05;9.02;;;;;;;0.58;100.00;101286.34;7398383;19;20380;-69
2024/01/13 09:15:39;;;;;;;10.30;8.77;;;;;;;0.60;100.00;101280.41;7399454;19;20035;-69
2024/01/13 09:18:08;;;;;;;10.30;9.18;;;;;;;0.61;100.00;101281.31;7399557;19;20011;-69
2024/01/13 09:20:37;;;;;;;12.25;9.40;;;;;;;0.64;100.00;101281.38;7399758;19;20022;-69
2024/01/13 09:23:12;;;;;;;10.57;9.45;;;;;;;0.64;100.00;101283.94;7398970;19;20006;-69
2024/01/13 09:25:43;;;;;;;11.80;8.82;;;;;;;0.63;100.00;101274.44;7397491;19;20018;-69
2024/01/13 09:28:18;;;;;;;11.43;9.30;;;;;;;0.60;100.00;101264.91;7398255;19;20094;-69
2024/01/13 09:30:47;;;;;;;14.25;9.40;;;;;;;0.61;100.00;101265.81;7396552;19;20039;-69
2024/01/13 09:33:15;;;;;;;10.20;7.88;;;;;;;0.60;100.00;101266.63;7396477;19;20083;-69
2024/01/13 09:35:44;;;;;;;8.90;7.95;;;;;;;0.61;100.00;101256.34;7396506;19;20019;-69
2024/01/13 09:38:12;;;;;;;10.07;8.27;;;;;;;0.58;100.00;101239.88;7398235;19;20023;-69
2024/01/13 09:40:44;;;;;;;8.38;7.47;;;;;;;0.62;100.00;101249.44;7398336;19;20011;-69
2024/01/13 09:43:24;;;;;;;10.57;8.32;;;;;;;0.65;100.00;101258.16;7397481;19;20007;-69
2024/01/13 09:45:53;;;;;;;9.75;8.52;;;;;;;0.67;100.00;101234.97;7396231;19;20034;-69
2024/01/13 09:48:22;;;;;;;8.20;6.95;;;;;;;0.71;100.00;101241.97;7398345;19;20082;-67
2024/01/13 09:50:53;;;;;;;8.32;6.80;;;;;;;0.72;100.00;101254.06;7397628;19;20066;-67
2024/01/13 09:53:30;;;;;;;10.55;7.18;;;;;;;0.74;100.00;101262.69;7395633;19;20536;-68
2024/01/13 09:56:06;;;;;;;9.40;8.20;;;;;;;0.75;100.00;101248.97;7398264;19;20087;-68
2024/01/13 09:58:35;;;;;;;8.88;7.07;;;;;;;0.76;100.00;101237.81;7398390;19;20069;-69
2024/01/13 10:01:04;;;;;;;8.50;7.28;;;;;;;0.77;100.00;101236.97;7398083;19;20070;-69
2024/01/13 10:03:33;;;;;;;7.75;6.60;;;;;;;0.79;100.00;101222.38;7396553;19;20484;-69
2024/01/13 10:06:02;;;;;;;8.23;6.72;;;;;;;0.78;100.00;101219.75;7395972;19;20108;-69
2024/01/13 10:08:33;;;;;;;9.35;6.57;;;;;;;0.78;100.00;101223.22;7397740;19;20016;-69
2024/01/13 10:11:05;;;;;;;7.60;6.47;;;;;;;0.78;100.00;101219.75;7397911;19;20051;-67
2024/01/13 10:13:33;;;;;;;9.85;7.40;;;;;;;0.76;100.00;101229.19;7396847;19;20082;-66
2024/01/13 10:16:02;;;;;;;8.88;6.40;;;;;;;0.77;100.00;101218.88;7394691;19;20388;-69
2024/01/13 10:18:34;;;;;;;10.52;7.20;;;;;;;0.83;100.00;101205.25;7396766;19;20011;-70
2024/01/13 10:21:07;;;;;;;7.32;5.90;;;;;;;0.88;100.00;101197.63;7397648;19;20011;-69
2024/01/13 10:23:35;;;;;;;6.93;5.50;;;;;;;0.91;100.00;101183.06;7395842;19;20405;-70
2024/01/13 10:26:07;;;;;;;6.25;5.45;;;;;;;0.96;100.00;101180.59;7395485;19;20019;-70
2024/01/13 10:28:35;;;;;;;5.97;4.75;;;;;;;0.98;100.00;101192.69;7395730;19;20053;-70
2024/01/13 10:31:04;;;;;;;6.93;5.70;;;;;;;1.03;100.00;101182.50;7395156;19;20010;-70
2024/01/13 10:33:34;;;;;;;6.60;5.43;;;;;;;1.04;100.00;101197.16;7395448;19;20372;-70
2024/01/13 10:36:03;;;;;;;6.35;5.70;;;;;;;1.07;100.00;101184.31;7396412;19;20023;-70
2024/01/13 10:38:32;;;;;;;6.68;5.55;;;;;;;1.06;100.00;101195.50;7396178;19;20015;-70
2024/01/13 10:41:00;;;;;;;6.55;5.85;;;;;;;1.06;100.00;101220.44;7396528;19;20023;-70
2024/01/13 10:43:33;;;;;;;7.47;6.07;;;;;;;1.04;100.00;101215.25;7395485;19;20031;-69
2024/01/13 10:46:04;;;;;;;6.63;5.53;;;;;;;1.03;100.00;101198.00;7395017;19;20081;-69
2024/01/13 10:48:40;;;;;;;7.63;6.63;;;;;;;1.00;100.00;101197.03;7396340;19;20019;-69
2024/01/13 10:51:15;;;;;;;7.07;6.03;;;;;;;0.99;100.00;101201.34;7396671;19;20011;-69
2024/01/13 10:53:47;;;;;;;7.15;6.15;;;;;;;0.98;100.00;101186.66;7395670;19;20031;-68
2024/01/13 10:56:18;;;;;;;8.43;6.65;;;;;;;0.95;100.00;101186.63;7395541;19;20449;-68
2024/01/13 10:58:51;;;;;;;9.25;6.25;;;;;;;0.90;100.00;101190.78;7395373;19;20082;-68
2024/01/13 11:01:20;;;;;;;7.07;5.57;;;;;;;0.87;100.00;101195.88;7395914;19;20015;-68
2024/01/13 11:03:49;;;;;;;7.68;6.45;;;;;;;0.84;100.00;101196.66;7394436;19;20466;-66
2024/01/13 11:06:18;;;;;;;6.97;6.15;;;;;;;0.80;100.00;101184.50;7394581;19;20481;-68
2024/01/13 11:08:48;;;;;;;8.32;6.32;;;;;;;0.79;100.00;101182.75;7395721;19;20006;-68
2024/01/13 11:11:22;;;;;;;11.82;8.43;;;;;;;0.76;100.00;101183.56;7396093;19;20011;-67
2024/01/13 11:14:03;;;;;;;12.13;10.82;;;;;;;0.72;100.00;101174.00;7394862;19;20028;-67
2024/01/13 11:16:33;;;;;;;9.98;7.75;;;;;;;0.72;100.00;101173.09;7395951;19;20014;-68
2024/01/13 11:19:02;;;;;;;7.60;6.75;;;;;;;0.70;100.00;101178.22;7395388;19;20006;-67
2024/01/13 11:21:32;;;;;;;6.07;5.43;;;;;;;0.68;100.00;101169.56;7394888;19;20034;-67